CFG6PD LHBP-EDDF
Flight info
| Callsign | CFG6PD |
|---|---|
| Flight time | N/A |
| Altitude | 34000 |
| Route | GILEP DCT ZOLKU DCT BEGLA DCT DITIS DCT RAPET T170 GAPLA/N0401F240 T178 KERAX KERAX5A |
| Aircraft | A319/M-SDE2FGHIJ1RWXY/HB1 |
Departure
| Time | 2026-05-06 11:36 |
|---|---|
| Airport | Budapest Liszt Ferenc International Airport (LHBP) |
Arrival
| Time | N/A |
|---|---|
| Airport | Frankfurt Main Airport (EDDF) |
| Time | Latitude | Longitude | Altitude | Speed | Heading |
|---|---|---|---|---|---|
| 2026-05-06 11:11 | 47.43411 | 19.26135 | 455 ft | 0 kts | 133° |
| 2026-05-06 11:27 | 47.43426 | 19.26109 | 456 ft | 4 kts | 126° |
| 2026-05-06 11:28 | 47.43441 | 19.26076 | 457 ft | 4 kts | 116° |
| 2026-05-06 11:28 | 47.43450 | 19.26040 | 457 ft | 4 kts | 94° |
| 2026-05-06 11:28 | 47.43446 | 19.26008 | 457 ft | 2 kts | 43° |
| 2026-05-06 11:28 | 47.43445 | 19.26007 | 457 ft | 0 kts | 42° |
| 2026-05-06 11:32 | 47.43447 | 19.26009 | 456 ft | 2 kts | 42° |
| 2026-05-06 11:32 | 47.43467 | 19.26037 | 456 ft | 5 kts | 42° |
| 2026-05-06 11:32 | 47.43500 | 19.26081 | 457 ft | 8 kts | 42° |
| 2026-05-06 11:33 | 47.43548 | 19.26145 | 455 ft | 10 kts | 42° |
| 2026-05-06 11:33 | 47.43609 | 19.26167 | 457 ft | 10 kts | 334° |
| 2026-05-06 11:33 | 47.43661 | 19.26087 | 457 ft | 12 kts | 313° |
| 2026-05-06 11:33 | 47.43719 | 19.25995 | 456 ft | 13 kts | 313° |
| 2026-05-06 11:34 | 47.43793 | 19.25989 | 456 ft | 12 kts | 36° |
| 2026-05-06 11:34 | 47.43860 | 19.26080 | 458 ft | 14 kts | 43° |
| 2026-05-06 11:34 | 47.43931 | 19.26175 | 458 ft | 14 kts | 41° |
| 2026-05-06 11:34 | 47.44002 | 19.26268 | 458 ft | 14 kts | 41° |
| 2026-05-06 11:35 | 47.44056 | 19.26362 | 465 ft | 9 kts | 62° |
| 2026-05-06 11:35 | 47.44070 | 19.26429 | 469 ft | 6 kts | 81° |
| 2026-05-06 11:35 | 47.44069 | 19.26512 | 471 ft | 11 kts | 108° |
| 2026-05-06 11:35 | 47.43950 | 19.26718 | 468 ft | 62 kts | 132° |
| 2026-05-06 11:36 | 47.43479 | 19.27476 | 472 ft | 138 kts | 133° |
| 2026-05-06 11:36 | 47.42732 | 19.28644 | 832 ft | 166 kts | 136° |
| 2026-05-06 11:36 | 47.41963 | 19.29929 | 1670 ft | 169 kts | 123° |
| 2026-05-06 11:36 | 47.41339 | 19.31517 | 2270 ft | 189 kts | 122° |
| 2026-05-06 11:37 | 47.40664 | 19.33289 | 2887 ft | 204 kts | 120° |
| 2026-05-06 11:37 | 47.39961 | 19.35203 | 3514 ft | 221 kts | 120° |
| 2026-05-06 11:37 | 47.39193 | 19.37290 | 4071 ft | 241 kts | 120° |
| 2026-05-06 11:37 | 47.38326 | 19.39456 | 4927 ft | 253 kts | 129° |
| 2026-05-06 11:38 | 47.36864 | 19.40906 | 5648 ft | 265 kts | 167° |
| 2026-05-06 11:38 | 47.35040 | 19.40800 | 6608 ft | 269 kts | 201° |
| 2026-05-06 11:38 | 47.33564 | 19.39145 | 7704 ft | 273 kts | 232° |
| 2026-05-06 11:38 | 47.32630 | 19.36698 | 8799 ft | 276 kts | 245° |
| 2026-05-06 11:39 | 47.31884 | 19.34052 | 9825 ft | 280 kts | 247° |
| 2026-05-06 11:39 | 47.31118 | 19.31356 | 10553 ft | 297 kts | 245° |
| 2026-05-06 11:39 | 47.30200 | 19.28483 | 11062 ft | 319 kts | 243° |
| 2026-05-06 11:39 | 47.29143 | 19.25557 | 11857 ft | 328 kts | 240° |
| 2026-05-06 11:40 | 47.27988 | 19.22630 | 12760 ft | 333 kts | 239° |
| 2026-05-06 11:40 | 47.26786 | 19.19744 | 13626 ft | 338 kts | 238° |
| 2026-05-06 11:40 | 47.25530 | 19.16842 | 14479 ft | 342 kts | 237° |
| 2026-05-06 11:40 | 47.24215 | 19.13854 | 15290 ft | 347 kts | 237° |
| 2026-05-06 11:41 | 47.22914 | 19.10829 | 16086 ft | 352 kts | 238° |
| 2026-05-06 11:41 | 47.21680 | 19.07703 | 16858 ft | 357 kts | 245° |
| 2026-05-06 11:41 | 47.20993 | 19.04176 | 17600 ft | 362 kts | 262° |
| 2026-05-06 11:41 | 47.21033 | 19.00446 | 18335 ft | 368 kts | 279° |
| 2026-05-06 11:42 | 47.21820 | 18.96865 | 19051 ft | 374 kts | 296° |
| 2026-05-06 11:42 | 47.23280 | 18.93683 | 19775 ft | 378 kts | 307° |
| 2026-05-06 11:42 | 47.24894 | 18.90662 | 20482 ft | 382 kts | 307° |
| 2026-05-06 11:42 | 47.26538 | 18.87586 | 21165 ft | 385 kts | 307° |
| 2026-05-06 11:43 | 47.28204 | 18.84458 | 21838 ft | 389 kts | 307° |
| 2026-05-06 11:43 | 47.29875 | 18.81313 | 22502 ft | 393 kts | 307° |
| 2026-05-06 11:43 | 47.31562 | 18.78131 | 23133 ft | 396 kts | 307° |
| 2026-05-06 11:44 | 47.34983 | 18.71658 | 24319 ft | 403 kts | 307° |
| 2026-05-06 11:44 | 47.36694 | 18.68418 | 24882 ft | 406 kts | 307° |
| 2026-05-06 11:44 | 47.38458 | 18.65078 | 25442 ft | 409 kts | 306° |
| 2026-05-06 11:44 | 47.40164 | 18.61790 | 25956 ft | 411 kts | 303° |
| 2026-05-06 11:45 | 47.41600 | 18.58128 | 26455 ft | 413 kts | 294° |
| 2026-05-06 11:45 | 47.42599 | 18.54150 | 26949 ft | 414 kts | 285° |
| 2026-05-06 11:45 | 47.43421 | 18.50081 | 27441 ft | 417 kts | 285° |
| 2026-05-06 11:45 | 47.44261 | 18.45954 | 27957 ft | 419 kts | 285° |
| 2026-05-06 11:46 | 47.45104 | 18.41823 | 28444 ft | 421 kts | 285° |
| 2026-05-06 11:46 | 47.45953 | 18.37662 | 28899 ft | 423 kts | 285° |
| 2026-05-06 11:46 | 47.46804 | 18.33487 | 29346 ft | 426 kts | 285° |
| 2026-05-06 11:46 | 47.47654 | 18.29293 | 29779 ft | 428 kts | 285° |
| 2026-05-06 11:47 | 47.48493 | 18.25113 | 30200 ft | 430 kts | 285° |
| 2026-05-06 11:47 | 47.49280 | 18.20845 | 30598 ft | 432 kts | 283° |
| 2026-05-06 11:47 | 47.50003 | 18.16520 | 30989 ft | 434 kts | 282° |
| 2026-05-06 11:47 | 47.50693 | 18.12162 | 31363 ft | 437 kts | 282° |
| 2026-05-06 11:48 | 47.51380 | 18.07778 | 31711 ft | 439 kts | 282° |
| 2026-05-06 11:48 | 47.52077 | 18.03370 | 32133 ft | 440 kts | 282° |
| 2026-05-06 11:48 | 47.52780 | 17.98978 | 32617 ft | 438 kts | 282° |
| 2026-05-06 11:48 | 47.53489 | 17.94586 | 33117 ft | 437 kts | 282° |
| 2026-05-06 11:49 | 47.54199 | 17.90223 | 33606 ft | 436 kts | 282° |
| 2026-05-06 11:49 | 47.54911 | 17.85867 | 33843 ft | 436 kts | 282° |
| 2026-05-06 11:49 | 47.56990 | 17.77700 | 33897 ft | 422 kts | 298° |
| 2026-05-06 11:50 | 47.59956 | 17.70246 | 33898 ft | 419 kts | 298° |
| 2026-05-06 11:50 | 47.62911 | 17.62802 | 33894 ft | 419 kts | 298° |
| 2026-05-06 11:51 | 47.65861 | 17.55360 | 33883 ft | 419 kts | 298° |
| 2026-05-06 11:51 | 47.68807 | 17.47910 | 33886 ft | 419 kts | 298° |
| 2026-05-06 11:52 | 47.71746 | 17.40447 | 33879 ft | 419 kts | 298° |
| 2026-05-06 11:52 | 47.74661 | 17.33024 | 33873 ft | 418 kts | 298° |
| 2026-05-06 11:53 | 47.77590 | 17.25556 | 33868 ft | 418 kts | 298° |
| 2026-05-06 11:53 | 47.80512 | 17.18067 | 33866 ft | 418 kts | 298° |
| 2026-05-06 11:54 | 47.83537 | 17.10684 | 33860 ft | 420 kts | 305° |
| 2026-05-06 11:54 | 47.87231 | 17.03987 | 33854 ft | 421 kts | 307° |
| 2026-05-06 11:55 | 47.90947 | 16.97253 | 33849 ft | 421 kts | 307° |
| 2026-05-06 11:55 | 47.94663 | 16.90501 | 33845 ft | 421 kts | 307° |
| 2026-05-06 11:56 | 47.98380 | 16.83733 | 33840 ft | 422 kts | 307° |
| 2026-05-06 11:56 | 48.02088 | 16.76951 | 33835 ft | 422 kts | 307° |
| 2026-05-06 11:57 | 48.05771 | 16.70204 | 33828 ft | 423 kts | 307° |
| 2026-05-06 11:57 | 48.09487 | 16.63386 | 33823 ft | 423 kts | 307° |
| 2026-05-06 11:58 | 48.13202 | 16.56569 | 33823 ft | 423 kts | 307° |
| 2026-05-06 11:58 | 48.16910 | 16.49735 | 33825 ft | 423 kts | 307° |
| 2026-05-06 11:59 | 48.20603 | 16.42906 | 33823 ft | 423 kts | 307° |
| 2026-05-06 11:59 | 48.24301 | 16.36042 | 33821 ft | 423 kts | 307° |
| 2026-05-06 12:00 | 48.28007 | 16.29155 | 33827 ft | 424 kts | 307° |
| 2026-05-06 12:00 | 48.31708 | 16.22272 | 33823 ft | 424 kts | 307° |
| 2026-05-06 12:01 | 48.35400 | 16.15368 | 33823 ft | 424 kts | 306° |
| 2026-05-06 12:01 | 48.39097 | 16.08441 | 33827 ft | 424 kts | 306° |
| 2026-05-06 12:02 | 48.42789 | 16.01511 | 33827 ft | 424 kts | 306° |
| 2026-05-06 12:02 | 48.46473 | 15.94577 | 33827 ft | 424 kts | 306° |
| 2026-05-06 12:03 | 48.50158 | 15.87619 | 33827 ft | 424 kts | 306° |
| 2026-05-06 12:03 | 48.53814 | 15.80709 | 33830 ft | 424 kts | 306° |
| 2026-05-06 12:04 | 48.57492 | 15.73731 | 33827 ft | 424 kts | 306° |
| 2026-05-06 12:04 | 48.61071 | 15.66923 | 33834 ft | 422 kts | 305° |
| 2026-05-06 12:05 | 48.64754 | 15.59902 | 33843 ft | 419 kts | 305° |
| 2026-05-06 12:05 | 48.68373 | 15.52991 | 33840 ft | 417 kts | 305° |
| 2026-05-06 12:06 | 48.71962 | 15.46107 | 33834 ft | 417 kts | 305° |
| 2026-05-06 12:06 | 48.75522 | 15.39261 | 33824 ft | 416 kts | 304° |
| 2026-05-06 12:07 | 48.79099 | 15.32376 | 33817 ft | 416 kts | 304° |
| 2026-05-06 12:07 | 48.82673 | 15.25477 | 33808 ft | 416 kts | 304° |
| 2026-05-06 12:08 | 48.86235 | 15.18579 | 33802 ft | 416 kts | 304° |
| 2026-05-06 12:08 | 48.89771 | 15.11697 | 33798 ft | 416 kts | 304° |
| 2026-05-06 12:09 | 48.93290 | 15.04627 | 33795 ft | 415 kts | 303° |
| 2026-05-06 12:09 | 48.96696 | 14.97595 | 33794 ft | 416 kts | 302° |
| 2026-05-06 12:10 | 49.00126 | 14.90489 | 33796 ft | 416 kts | 303° |
| 2026-05-06 12:10 | 49.03560 | 14.83392 | 33795 ft | 416 kts | 303° |
| 2026-05-06 12:11 | 49.06987 | 14.76324 | 33796 ft | 417 kts | 303° |
| 2026-05-06 12:11 | 49.10432 | 14.69213 | 33796 ft | 417 kts | 302° |
| 2026-05-06 12:12 | 49.13870 | 14.62069 | 33796 ft | 417 kts | 302° |
| 2026-05-06 12:12 | 49.17299 | 14.54928 | 33796 ft | 417 kts | 302° |
| 2026-05-06 12:13 | 49.20725 | 14.47782 | 33792 ft | 417 kts | 302° |
| 2026-05-06 12:13 | 49.24135 | 14.40653 | 33793 ft | 418 kts | 302° |
| 2026-05-06 12:14 | 49.27556 | 14.33478 | 33793 ft | 418 kts | 302° |
| 2026-05-06 12:14 | 49.30984 | 14.26268 | 33792 ft | 418 kts | 302° |
| 2026-05-06 12:15 | 49.34394 | 14.19060 | 33797 ft | 418 kts | 302° |
| 2026-05-06 12:15 | 49.37810 | 14.11817 | 33796 ft | 419 kts | 302° |
| 2026-05-06 12:16 | 49.41201 | 14.04629 | 33792 ft | 419 kts | 302° |
| 2026-05-06 12:16 | 49.44614 | 13.97383 | 33795 ft | 419 kts | 302° |
| 2026-05-06 12:17 | 49.48022 | 13.90112 | 33796 ft | 419 kts | 302° |
| 2026-05-06 12:17 | 49.51431 | 13.82820 | 33796 ft | 420 kts | 302° |
| 2026-05-06 12:18 | 49.54234 | 13.76803 | 33789 ft | 420 kts | 302° |
| 2026-05-06 12:18 | 49.58209 | 13.68254 | 33786 ft | 420 kts | 302° |
| 2026-05-06 12:19 | 49.61600 | 13.60941 | 33787 ft | 420 kts | 302° |
| 2026-05-06 12:19 | 49.64423 | 13.54832 | 33793 ft | 421 kts | 302° |
| 2026-05-06 12:20 | 49.67813 | 13.47473 | 33796 ft | 421 kts | 301° |
| 2026-05-06 12:20 | 49.71765 | 13.38887 | 33797 ft | 421 kts | 301° |
| 2026-05-06 12:21 | 49.74582 | 13.32743 | 33798 ft | 421 kts | 301° |
| 2026-05-06 12:21 | 49.77983 | 13.25313 | 33802 ft | 421 kts | 301° |
| 2026-05-06 12:22 | 49.81336 | 13.17976 | 33802 ft | 420 kts | 301° |
| 2026-05-06 12:22 | 49.84911 | 13.10121 | 33802 ft | 420 kts | 301° |
| 2026-05-06 12:23 | 49.88053 | 13.03186 | 33801 ft | 420 kts | 301° |
| 2026-05-06 12:23 | 49.91417 | 12.95755 | 33801 ft | 420 kts | 301° |
| 2026-05-06 12:24 | 49.94768 | 12.88341 | 33803 ft | 420 kts | 301° |
| 2026-05-06 12:24 | 49.98081 | 12.80974 | 33804 ft | 420 kts | 301° |
| 2026-05-06 12:25 | 50.01410 | 12.73523 | 33806 ft | 419 kts | 301° |
| 2026-05-06 12:25 | 50.04750 | 12.66076 | 33804 ft | 420 kts | 301° |
| 2026-05-06 12:26 | 50.08086 | 12.58610 | 33802 ft | 420 kts | 301° |
| 2026-05-06 12:26 | 50.11412 | 12.51133 | 33803 ft | 420 kts | 301° |
| 2026-05-06 12:27 | 50.14718 | 12.43674 | 33805 ft | 420 kts | 301° |
| 2026-05-06 12:27 | 50.18023 | 12.36162 | 33807 ft | 419 kts | 298° |
| 2026-05-06 12:28 | 50.20406 | 12.27994 | 33804 ft | 413 kts | 286° |
| 2026-05-06 12:28 | 50.22371 | 12.19436 | 33802 ft | 413 kts | 286° |
| 2026-05-06 12:29 | 50.24271 | 12.11169 | 33800 ft | 413 kts | 286° |
| 2026-05-06 12:29 | 50.26202 | 12.02723 | 33799 ft | 413 kts | 286° |
| 2026-05-06 12:30 | 50.28128 | 11.94287 | 33798 ft | 413 kts | 286° |
| 2026-05-06 12:30 | 50.30067 | 11.85838 | 33798 ft | 413 kts | 286° |
| 2026-05-06 12:31 | 50.32160 | 11.76700 | 33799 ft | 413 kts | 286° |
| 2026-05-06 12:31 | 50.33926 | 11.68947 | 33800 ft | 414 kts | 286° |
| 2026-05-06 12:32 | 50.35950 | 11.60021 | 33802 ft | 414 kts | 286° |
| 2026-05-06 12:32 | 50.37759 | 11.51981 | 33802 ft | 414 kts | 286° |
| 2026-05-06 12:33 | 50.39573 | 11.43905 | 33800 ft | 414 kts | 286° |
| 2026-05-06 12:33 | 50.41565 | 11.34978 | 33797 ft | 414 kts | 286° |
| 2026-05-06 12:34 | 50.43457 | 11.26456 | 33795 ft | 414 kts | 286° |
| 2026-05-06 12:34 | 50.45352 | 11.17921 | 33786 ft | 414 kts | 285° |
| 2026-05-06 12:35 | 50.47226 | 11.09444 | 33783 ft | 414 kts | 285° |
| 2026-05-06 12:35 | 50.49099 | 11.00901 | 33781 ft | 414 kts | 285° |
| 2026-05-06 12:36 | 50.50997 | 10.92202 | 33796 ft | 429 kts | 285° |
| 2026-05-06 12:36 | 50.52929 | 10.83293 | 33785 ft | 435 kts | 285° |
| 2026-05-06 12:37 | 50.54924 | 10.74320 | 33786 ft | 436 kts | 287° |
| 2026-05-06 12:37 | 50.56988 | 10.65351 | 33784 ft | 437 kts | 287° |
| 2026-05-06 12:38 | 50.58016 | 10.60856 | 33111 ft | 438 kts | 287° |
| 2026-05-06 12:38 | 50.59050 | 10.56303 | 31913 ft | 446 kts | 286° |
| 2026-05-06 12:38 | 50.60094 | 10.51674 | 30825 ft | 450 kts | 286° |
| 2026-05-06 12:38 | 50.61140 | 10.47025 | 29978 ft | 448 kts | 287° |
| 2026-05-06 12:39 | 50.62172 | 10.42432 | 29287 ft | 442 kts | 287° |
| 2026-05-06 12:39 | 50.63192 | 10.37894 | 28552 ft | 437 kts | 287° |
| 2026-05-06 12:39 | 50.64019 | 10.33391 | 27824 ft | 429 kts | 277° |
| 2026-05-06 12:39 | 50.64203 | 10.28771 | 27102 ft | 421 kts | 264° |
| 2026-05-06 12:40 | 50.63722 | 10.24260 | 26374 ft | 414 kts | 252° |
| 2026-05-06 12:40 | 50.62508 | 10.19716 | 25581 ft | 408 kts | 240° |
| 2026-05-06 12:40 | 50.61287 | 10.16207 | 24903 ft | 405 kts | 240° |
| 2026-05-06 12:40 | 50.59938 | 10.12328 | 24156 ft | 402 kts | 240° |
| 2026-05-06 12:41 | 50.58603 | 10.08482 | 23421 ft | 399 kts | 240° |
| 2026-05-06 12:41 | 50.57280 | 10.04663 | 22732 ft | 396 kts | 240° |
| 2026-05-06 12:41 | 50.55943 | 10.00816 | 22079 ft | 393 kts | 240° |
| 2026-05-06 12:41 | 50.54659 | 9.97113 | 21478 ft | 390 kts | 242° |
| 2026-05-06 12:42 | 50.53686 | 9.93219 | 20902 ft | 388 kts | 253° |
| 2026-05-06 12:42 | 50.52958 | 9.89149 | 20341 ft | 386 kts | 253° |
| 2026-05-06 12:42 | 50.52236 | 9.85116 | 19805 ft | 383 kts | 253° |
| 2026-05-06 12:42 | 50.51513 | 9.81088 | 19247 ft | 379 kts | 253° |
| 2026-05-06 12:43 | 50.50796 | 9.77127 | 18681 ft | 376 kts | 253° |
| 2026-05-06 12:43 | 50.50078 | 9.73180 | 18115 ft | 373 kts | 253° |
| 2026-05-06 12:43 | 50.49383 | 9.69263 | 17545 ft | 370 kts | 253° |
| 2026-05-06 12:43 | 50.48726 | 9.65450 | 16987 ft | 367 kts | 253° |
| 2026-05-06 12:44 | 50.47862 | 9.61695 | 16417 ft | 363 kts | 242° |
| 2026-05-06 12:44 | 50.46449 | 9.58483 | 15854 ft | 358 kts | 227° |
| 2026-05-06 12:44 | 50.44540 | 9.55974 | 15292 ft | 355 kts | 212° |
| 2026-05-06 12:44 | 50.42370 | 9.54206 | 14712 ft | 352 kts | 206° |
| 2026-05-06 12:45 | 50.40178 | 9.52524 | 14125 ft | 350 kts | 206° |
| 2026-05-06 12:45 | 50.38007 | 9.50851 | 13547 ft | 347 kts | 206° |
| 2026-05-06 12:45 | 50.33649 | 9.47476 | 12359 ft | 342 kts | 207° |
| 2026-05-06 12:46 | 50.31581 | 9.45875 | 11770 ft | 339 kts | 207° |
| 2026-05-06 12:46 | 50.29493 | 9.44259 | 11298 ft | 333 kts | 207° |
| 2026-05-06 12:46 | 50.27481 | 9.42656 | 10895 ft | 325 kts | 211° |
| 2026-05-06 12:46 | 50.25760 | 9.40482 | 10764 ft | 317 kts | 227° |
| 2026-05-06 12:47 | 50.24473 | 9.37695 | 10780 ft | 313 kts | 242° |
| 2026-05-06 12:47 | 50.23673 | 9.34653 | 10788 ft | 296 kts | 250° |
| 2026-05-06 12:47 | 50.22989 | 9.31679 | 10785 ft | 289 kts | 249° |
| 2026-05-06 12:47 | 50.22304 | 9.28724 | 10787 ft | 288 kts | 249° |
| 2026-05-06 12:48 | 50.21623 | 9.25791 | 10783 ft | 288 kts | 249° |
| 2026-05-06 12:48 | 50.20942 | 9.22857 | 10785 ft | 288 kts | 249° |
| 2026-05-06 12:48 | 50.20262 | 9.19918 | 10788 ft | 287 kts | 249° |
| 2026-05-06 12:48 | 50.19584 | 9.17001 | 10786 ft | 287 kts | 249° |
| 2026-05-06 12:49 | 50.18907 | 9.14095 | 10787 ft | 287 kts | 249° |
| 2026-05-06 12:49 | 50.18226 | 9.11174 | 10786 ft | 287 kts | 249° |
| 2026-05-06 12:49 | 50.17543 | 9.08235 | 10783 ft | 282 kts | 249° |
| 2026-05-06 12:49 | 50.16893 | 9.05449 | 10786 ft | 266 kts | 249° |
| 2026-05-06 12:50 | 50.16276 | 9.02814 | 10782 ft | 252 kts | 249° |
| 2026-05-06 12:50 | 50.15693 | 9.00328 | 10782 ft | 237 kts | 249° |
| 2026-05-06 12:50 | 50.15141 | 8.97970 | 10782 ft | 223 kts | 249° |
| 2026-05-06 12:50 | 50.14624 | 8.95765 | 10785 ft | 217 kts | 249° |
| 2026-05-06 12:51 | 50.14103 | 8.93552 | 10787 ft | 215 kts | 249° |
| 2026-05-06 12:51 | 50.13599 | 8.91412 | 10785 ft | 215 kts | 249° |
| 2026-05-06 12:51 | 50.13090 | 8.89249 | 10785 ft | 215 kts | 249° |
| 2026-05-06 12:51 | 50.12576 | 8.87068 | 10785 ft | 215 kts | 249° |
| 2026-05-06 12:52 | 50.12061 | 8.84879 | 10787 ft | 215 kts | 249° |
| 2026-05-06 12:52 | 50.11547 | 8.82698 | 10784 ft | 214 kts | 249° |